createdAt,value
2023-03-15T00:00:50.306Z,0.67
2023-03-15T00:04:50.328Z,0.67
2023-03-15T00:08:50.405Z,0.63
2023-03-15T00:12:50.388Z,0.62
2023-03-15T00:16:50.357Z,0.63
2023-03-15T00:20:50.393Z,0.64
2023-03-15T00:24:50.410Z,0.68
2023-03-15T00:28:50.432Z,0.66
2023-03-15T00:32:50.404Z,0.66
2023-03-15T00:36:50.393Z,0.65
2023-03-15T00:40:50.359Z,0.64
2023-03-15T00:44:50.324Z,0.67
2023-03-15T00:48:50.424Z,0.65
2023-03-15T00:52:50.434Z,0.67
2023-03-15T00:56:50.436Z,0.66
2023-03-15T01:00:50.326Z,0.69
2023-03-15T01:04:50.359Z,0.67
2023-03-15T01:08:50.465Z,0.68
2023-03-15T01:12:50.368Z,0.67
2023-03-15T01:16:50.377Z,0.66
2023-03-15T01:20:50.314Z,0.67
2023-03-15T01:24:50.335Z,0.68
2023-03-15T01:28:50.274Z,0.68
2023-03-15T01:32:50.352Z,0.64
2023-03-15T01:36:50.280Z,0.65
2023-03-15T01:40:50.305Z,0.69
2023-03-15T01:44:50.253Z,0.67
2023-03-15T01:48:50.199Z,0.65
2023-03-15T01:52:50.318Z,0.63
2023-03-15T01:56:50.207Z,0.67
2023-03-15T02:00:50.256Z,0.66
2023-03-15T02:04:50.247Z,0.66
2023-03-15T02:08:50.223Z,0.68
2023-03-15T02:12:50.194Z,0.65
2023-03-15T02:16:50.295Z,0.62
2023-03-15T02:20:50.190Z,0.67
2023-03-15T02:24:50.198Z,0.65
2023-03-15T02:28:50.233Z,0.63
2023-03-15T02:32:50.273Z,0.68
2023-03-15T02:36:50.219Z,0.67
2023-03-15T02:40:50.224Z,0.64
2023-03-15T02:44:50.235Z,0.66
2023-03-15T02:48:50.363Z,0.66
2023-03-15T02:52:50.300Z,0.64
2023-03-15T02:56:50.240Z,0.66
2023-03-15T03:00:50.343Z,0.67
2023-03-15T03:04:51.244Z,0.67
2023-03-15T03:08:50.325Z,0.64
2023-03-15T03:12:50.352Z,0.66
2023-03-15T03:16:50.386Z,0.64
2023-03-15T03:20:50.342Z,0.67
2023-03-15T03:24:50.382Z,0.65
2023-03-15T03:28:50.465Z,0.63
2023-03-15T03:32:50.529Z,0.67
2023-03-15T03:36:50.509Z,0.66
2023-03-15T03:40:50.535Z,0.68
2023-03-15T03:44:51.227Z,0.66
2023-03-15T03:48:53.708Z,0.67
2023-03-15T03:52:50.568Z,0.67
2023-03-15T03:56:50.525Z,0.66
2023-03-15T04:00:50.759Z,0.65
2023-03-15T04:04:50.593Z,0.65
2023-03-15T04:08:50.430Z,0.62
2023-03-15T04:12:50.849Z,0.63
2023-03-15T04:16:50.397Z,0.65
2023-03-15T04:20:50.351Z,0.65
2023-03-15T04:24:50.263Z,0.66
2023-03-15T04:28:50.214Z,0.64
2023-03-15T04:32:50.291Z,0.63
2023-03-15T04:36:50.305Z,0.65
2023-03-15T04:40:50.182Z,0.65
2023-03-15T04:44:50.098Z,0.65
2023-03-15T04:48:50.061Z,0.66
2023-03-15T04:52:49.981Z,0.62
2023-03-15T04:56:49.966Z,0.64
2023-03-15T05:00:49.998Z,0.65
2023-03-15T05:04:49.883Z,0.62
2023-03-15T05:08:49.842Z,0.56
2023-03-15T05:12:49.798Z,0.52
2023-03-15T05:16:49.826Z,0.52
2023-03-15T05:20:49.755Z,0.51
2023-03-15T05:24:49.693Z,0.50
2023-03-15T05:28:49.663Z,0.53
2023-03-15T05:32:49.699Z,0.56
2023-03-15T05:36:49.766Z,0.66
2023-03-15T05:40:49.819Z,0.63
2023-03-15T05:44:49.975Z,0.66
2023-03-15T05:48:50.119Z,0.70
2023-03-15T05:52:50.141Z,0.68
2023-03-15T05:56:50.209Z,0.72
2023-03-15T06:00:50.304Z,0.72
2023-03-15T06:04:50.439Z,0.72
2023-03-15T06:08:50.501Z,0.75
2023-03-15T06:12:50.618Z,0.73
2023-03-15T06:16:50.682Z,0.73
2023-03-15T06:20:50.756Z,0.75
2023-03-15T06:24:50.806Z,0.75
2023-03-15T06:28:50.910Z,0.76
2023-03-15T06:32:50.966Z,0.73
2023-03-15T06:36:51.052Z,0.64
2023-03-15T06:40:51.092Z,0.68
2023-03-15T06:44:51.381Z,0.65
2023-03-15T06:48:51.323Z,0.53
2023-03-15T06:52:51.486Z,0.52
2023-03-15T06:56:51.633Z,0.55
2023-03-15T07:00:51.801Z,0.58
2023-03-15T07:04:51.905Z,0.56
2023-03-15T07:08:52.284Z,0.61
2023-03-15T07:12:51.947Z,0.64
2023-03-15T07:16:51.982Z,0.65
2023-03-15T07:20:51.971Z,0.68
2023-03-15T07:24:52.002Z,0.68
2023-03-15T07:28:52.101Z,0.64
2023-03-15T07:32:52.303Z,0.62
2023-03-15T07:36:52.217Z,0.55
2023-03-15T07:40:52.358Z,0.52
2023-03-15T07:44:52.562Z,0.57
2023-03-15T07:48:52.735Z,0.61
2023-03-15T07:52:52.683Z,0.66
2023-03-15T07:56:52.651Z,0.75
2023-03-15T08:00:52.680Z,0.75
2023-03-15T08:04:52.620Z,0.68
2023-03-15T08:08:52.545Z,0.74
2023-03-15T08:12:52.511Z,0.79
2023-03-15T08:16:52.478Z,0.82
2023-03-15T08:20:52.461Z,0.77
2023-03-15T08:24:52.393Z,0.81
2023-03-15T08:28:53.308Z,0.92
2023-03-15T08:32:52.455Z,0.77
2023-03-15T08:36:52.332Z,0.60
2023-03-15T08:40:52.232Z,0.74
2023-03-15T08:44:52.234Z,0.87
2023-03-15T08:48:52.295Z,0.93
2023-03-15T08:52:52.368Z,0.93
2023-03-15T08:56:52.317Z,0.96
2023-03-15T09:00:52.930Z,0.92
2023-03-15T09:04:53.534Z,0.92
2023-03-15T09:08:52.469Z,0.95
2023-03-15T09:12:52.505Z,1.04
2023-03-15T09:16:52.718Z,1.03
2023-03-15T09:20:52.572Z,1.11
2023-03-15T09:24:52.814Z,1.06
2023-03-15T09:28:53.027Z,0.94
2023-03-15T09:32:53.039Z,0.39
2023-03-15T09:36:53.164Z,0.40
2023-03-15T09:40:53.131Z,0.57
2023-03-15T09:44:53.159Z,0.85
2023-03-15T09:48:53.178Z,1.12
2023-03-15T09:52:53.277Z,2.33
2023-03-15T09:56:53.537Z,2.64
2023-03-15T10:00:53.712Z,2.02
2023-03-15T10:04:53.881Z,2.93
2023-03-15T10:08:53.862Z,2.88
2023-03-15T10:12:53.948Z,3.05
2023-03-15T10:16:53.962Z,3.55
2023-03-15T10:20:53.908Z,4.09
2023-03-15T10:24:53.920Z,4.18
2023-03-15T10:28:54.004Z,4.49
2023-03-15T10:32:54.010Z,2.02
2023-03-15T10:36:56.045Z,1.06
2023-03-15T10:40:54.333Z,0.89
2023-03-15T10:44:54.348Z,1.70
2023-03-15T10:48:54.490Z,2.26
2023-03-15T10:52:54.459Z,2.37
2023-03-15T10:56:54.462Z,3.65
2023-03-15T11:00:54.350Z,3.35
2023-03-15T11:04:54.347Z,2.71
2023-03-15T11:08:54.401Z,2.51
2023-03-15T11:12:54.246Z,2.61
2023-03-15T11:16:54.158Z,3.57
2023-03-15T11:20:54.186Z,5.62
2023-03-15T11:24:54.130Z,2.43
2023-03-15T11:28:54.041Z,1.59
2023-03-15T11:32:54.015Z,1.61
2023-03-15T11:37:07.192Z,3.25
2023-03-15T11:40:54.939Z,3.65
2023-03-15T11:44:53.934Z,4.88
2023-03-15T11:48:53.865Z,6.07
2023-03-15T11:52:53.991Z,5.77
2023-03-15T11:56:53.916Z,6.33
2023-03-15T12:00:53.976Z,7.15
2023-03-15T12:04:53.861Z,8.69
2023-03-15T12:08:53.794Z,8.15
2023-03-15T12:12:53.819Z,7.99
2023-03-15T12:16:53.795Z,7.06
2023-03-15T12:20:53.734Z,7.44
2023-03-15T12:24:53.646Z,6.89
2023-03-15T12:28:53.644Z,5.42
2023-03-15T12:32:53.587Z,5.89
2023-03-15T12:36:53.566Z,4.52
2023-03-15T12:40:53.482Z,4.35
2023-03-15T12:44:53.444Z,4.81
2023-03-15T12:48:53.410Z,4.13
2023-03-15T12:52:53.435Z,3.68
2023-03-15T12:56:53.348Z,4.65
2023-03-15T13:00:53.329Z,5.67
2023-03-15T13:04:53.305Z,6.14
2023-03-15T13:08:53.303Z,6.26
2023-03-15T13:12:53.235Z,6.68
2023-03-15T13:16:53.149Z,6.37
2023-03-15T13:20:53.205Z,6.47
2023-03-15T13:24:53.142Z,6.40
2023-03-15T13:28:53.089Z,5.92
2023-03-15T13:32:53.349Z,6.35
2023-03-15T13:36:53.548Z,6.07
2023-03-15T13:40:53.742Z,6.10
2023-03-15T13:44:53.868Z,5.38
2023-03-15T13:48:54.061Z,6.10
2023-03-15T13:52:54.187Z,5.61
2023-03-15T13:56:54.318Z,5.24
2023-03-15T14:00:54.511Z,4.19
2023-03-15T14:04:54.725Z,3.93
2023-03-15T14:08:54.944Z,5.00
2023-03-15T14:12:55.015Z,4.59
2023-03-15T14:17:04.761Z,4.18
2023-03-15T14:20:56.187Z,4.04
2023-03-15T14:24:55.191Z,3.95
2023-03-15T14:28:55.379Z,3.85
2023-03-15T14:32:55.617Z,4.00
2023-03-15T14:36:55.749Z,4.08
2023-03-15T14:40:55.922Z,3.80
2023-03-15T14:44:56.067Z,3.90
2023-03-15T14:48:56.249Z,2.04
2023-03-15T14:52:56.463Z,3.53
2023-03-15T14:56:56.625Z,3.70
2023-03-15T15:00:56.862Z,3.54
2023-03-15T15:04:57.056Z,3.21
2023-03-15T15:08:57.246Z,3.19
2023-03-15T15:13:05.875Z,2.87
2023-03-15T15:16:58.285Z,2.87
2023-03-15T15:20:57.176Z,2.89
2023-03-15T15:24:57.300Z,2.67
2023-03-15T15:28:57.354Z,2.91
2023-03-15T15:32:57.549Z,2.89
2023-03-15T15:36:57.181Z,2.98
2023-03-15T15:40:57.140Z,3.41
2023-03-15T15:44:57.543Z,3.10
2023-03-15T15:48:57.141Z,3.23
2023-03-15T15:52:57.030Z,3.48
2023-03-15T15:56:57.001Z,3.35
2023-03-15T16:00:56.966Z,3.40
2023-03-15T16:04:57.209Z,3.59
2023-03-15T16:08:57.140Z,3.68
2023-03-15T16:12:57.111Z,3.73
2023-03-15T16:16:57.039Z,3.74
2023-03-15T16:20:57.073Z,3.69
2023-03-15T16:24:56.962Z,3.71
2023-03-15T16:28:56.965Z,3.73
2023-03-15T16:32:56.886Z,3.80
2023-03-15T16:36:56.808Z,3.87
2023-03-15T16:40:56.764Z,3.84
2023-03-15T16:44:56.828Z,3.83
2023-03-15T16:48:56.848Z,3.77
2023-03-15T16:52:56.817Z,3.80
2023-03-15T16:56:56.746Z,3.74
2023-03-15T17:00:56.761Z,3.74
2023-03-15T17:04:56.688Z,3.56
2023-03-15T17:08:56.648Z,3.66
2023-03-15T17:12:56.576Z,3.70
2023-03-15T17:16:56.579Z,3.65
2023-03-15T17:20:56.542Z,3.68
2023-03-15T17:24:56.543Z,3.66
2023-03-15T17:28:56.475Z,3.56
2023-03-15T17:32:56.572Z,3.80
2023-03-15T17:36:56.437Z,3.72
2023-03-15T17:40:56.469Z,3.53
2023-03-15T17:44:56.310Z,3.65
2023-03-15T17:48:56.384Z,3.68
2023-03-15T17:52:56.315Z,3.55
2023-03-15T17:56:56.272Z,3.50
2023-03-15T18:00:56.239Z,3.54
2023-03-15T18:04:56.229Z,3.68
2023-03-15T18:08:56.155Z,3.61
2023-03-15T18:12:56.178Z,3.69
2023-03-15T18:16:56.374Z,3.46
2023-03-15T18:20:56.389Z,3.49
2023-03-15T18:24:56.524Z,3.68
2023-03-15T18:28:56.573Z,3.69
2023-03-15T18:37:12.570Z,0.50
2023-03-15T18:41:12.524Z,0.53
2023-03-15T18:45:12.532Z,0.50
2023-03-15T18:49:12.438Z,0.52
2023-03-15T18:53:12.490Z,0.51
2023-03-15T18:57:12.391Z,0.53
2023-03-15T19:01:12.396Z,0.51
2023-03-15T19:05:12.350Z,0.50
2023-03-15T19:09:12.310Z,0.51
2023-03-15T19:13:12.259Z,0.51
2023-03-15T19:17:12.278Z,0.51
2023-03-15T19:21:12.158Z,0.52
2023-03-15T19:25:12.144Z,0.54
2023-03-15T19:29:12.071Z,0.55
2023-03-15T19:33:12.117Z,0.57
2023-03-15T19:37:12.016Z,0.59
2023-03-15T19:41:12.930Z,0.59
2023-03-15T19:45:11.963Z,0.59
2023-03-15T19:49:11.883Z,0.57
2023-03-15T19:53:11.883Z,0.58
2023-03-15T19:57:11.866Z,0.61
2023-03-15T20:01:11.848Z,0.58
2023-03-15T20:05:11.792Z,0.60
2023-03-15T20:09:11.717Z,0.62
2023-03-15T20:13:11.696Z,0.60
2023-03-15T20:17:11.657Z,0.63
2023-03-15T20:21:11.685Z,0.62
2023-03-15T20:25:11.599Z,0.62
2023-03-15T20:29:11.545Z,0.61
2023-03-15T20:33:11.539Z,0.61
2023-03-15T20:37:11.479Z,0.63
2023-03-15T20:41:11.437Z,0.61
2023-03-15T20:45:11.404Z,0.63
2023-03-15T20:49:11.337Z,0.60
2023-03-15T20:53:11.314Z,0.61
2023-03-15T20:57:11.266Z,0.61
2023-03-15T21:01:11.284Z,0.63
2023-03-15T21:05:11.218Z,0.64
2023-03-15T21:09:11.130Z,0.62
2023-03-15T21:13:11.184Z,0.61
2023-03-15T21:17:11.085Z,0.62
2023-03-15T21:21:11.007Z,0.61
2023-03-15T21:25:11.051Z,0.63
2023-03-15T21:29:10.919Z,0.60
2023-03-15T21:33:11.261Z,0.59
2023-03-15T21:37:10.826Z,0.61
2023-03-15T21:41:10.823Z,0.62
2023-03-15T21:45:10.807Z,0.62
2023-03-15T21:49:10.772Z,0.61
2023-03-15T21:53:10.703Z,0.61
2023-03-15T21:57:10.685Z,0.60
2023-03-15T22:01:10.729Z,0.62
2023-03-15T22:05:10.651Z,0.61
2023-03-15T22:09:10.605Z,0.61
2023-03-15T22:13:10.629Z,0.63
2023-03-15T22:17:10.735Z,0.62
2023-03-15T22:21:10.655Z,0.64
2023-03-15T22:25:10.650Z,0.62
2023-03-15T22:29:10.680Z,0.59
2023-03-15T22:33:10.934Z,0.64
2023-03-15T22:37:10.657Z,0.63
2023-03-15T22:41:10.677Z,0.64
2023-03-15T22:45:10.714Z,0.63
2023-03-15T22:49:10.726Z,0.62
2023-03-15T22:53:10.753Z,0.63
2023-03-15T22:57:10.787Z,0.63
2023-03-15T23:01:10.839Z,0.63
2023-03-15T23:05:10.852Z,0.63
2023-03-15T23:09:10.877Z,0.61
2023-03-15T23:13:10.878Z,0.62
2023-03-15T23:17:10.926Z,0.61
2023-03-15T23:21:10.992Z,0.62
2023-03-15T23:25:11.043Z,0.63
2023-03-15T23:29:11.110Z,0.62
2023-03-15T23:33:11.092Z,0.62
2023-03-15T23:37:11.169Z,0.62
2023-03-15T23:41:11.253Z,0.61
2023-03-15T23:45:11.274Z,0.61
2023-03-15T23:49:11.312Z,0.60
2023-03-15T23:53:11.439Z,0.62
2023-03-15T23:57:11.374Z,0.62
